createdAt,value
2023-04-10T00:00:38.158Z,98997.03
2023-04-10T00:03:05.897Z,98991.66
2023-04-10T00:05:33.271Z,98998.25
2023-04-10T00:08:00.870Z,99006.75
2023-04-10T00:10:30.434Z,99006.75
2023-04-10T00:12:58.933Z,99008.34
2023-04-10T00:15:25.925Z,99008.66
2023-04-10T00:17:55.242Z,98998.69
2023-04-10T00:20:23.565Z,98994.97
2023-04-10T00:22:50.720Z,98994.84
2023-04-10T00:25:17.962Z,98989.50
2023-04-10T00:27:44.973Z,98995.53
2023-04-10T00:30:12.045Z,98984.59
2023-04-10T00:32:39.079Z,98978.78
2023-04-10T00:35:08.019Z,98975.78
2023-04-10T00:37:34.961Z,98985.25
2023-04-10T00:40:02.047Z,98982.72
2023-04-10T00:42:29.055Z,98978.25
2023-04-10T00:44:56.044Z,98974.00
2023-04-10T00:47:23.045Z,98979.53
2023-04-10T00:49:50.457Z,98971.47
2023-04-10T00:52:17.843Z,98972.56
2023-04-10T00:54:44.931Z,98971.69
2023-04-10T00:57:12.332Z,98971.59
2023-04-10T00:59:39.914Z,98974.13
2023-04-10T01:02:07.423Z,98964.09
2023-04-10T01:04:34.802Z,98962.63
2023-04-10T01:07:21.559Z,98965.25
2023-04-10T01:10:07.076Z,98971.97
2023-04-10T01:12:58.670Z,98974.16
2023-04-10T01:15:30.892Z,98971.47
2023-04-10T01:18:07.431Z,98971.56
2023-04-10T01:20:39.616Z,98973.50
2023-04-10T01:23:47.972Z,98966.44
2023-04-10T01:26:19.765Z,98972.44
2023-04-10T01:28:53.841Z,98966.19
2023-04-10T01:31:33.428Z,98972.03
2023-04-10T01:34:12.028Z,98970.66
2023-04-10T01:36:52.081Z,98970.38
2023-04-10T01:39:21.809Z,98968.34
2023-04-10T01:41:52.730Z,98974.50
2023-04-10T01:44:28.171Z,98972.72
2023-04-10T01:46:57.676Z,98980.06
2023-04-10T01:49:27.807Z,98964.97
2023-04-10T01:52:02.395Z,98964.16
2023-04-10T01:54:32.747Z,98968.34
2023-04-10T01:57:02.156Z,98970.25
2023-04-10T01:59:31.214Z,98969.00
2023-04-10T02:02:02.044Z,98969.78
2023-04-10T02:04:29.327Z,98966.19
2023-04-10T02:07:07.697Z,98965.00
2023-04-10T02:09:55.675Z,98956.72
2023-04-10T02:12:30.282Z,98950.47
2023-04-10T02:15:01.975Z,98939.56
2023-04-10T02:17:31.188Z,98953.38
2023-04-10T02:19:59.506Z,98951.47
2023-04-10T02:22:27.700Z,98943.44
2023-04-10T02:24:54.851Z,98940.66
2023-04-10T02:27:36.291Z,98933.97
2023-04-10T02:30:04.950Z,98936.03
2023-04-10T02:32:34.770Z,98938.63
2023-04-10T02:35:02.907Z,98933.22
2023-04-10T02:37:31.389Z,98936.16
2023-04-10T02:40:00.686Z,98928.41
2023-04-10T02:42:32.295Z,98935.34
2023-04-10T02:45:01.314Z,98940.56
2023-04-10T02:47:34.150Z,98938.09
2023-04-10T02:50:01.298Z,98933.78
2023-04-10T02:52:33.021Z,98931.97
2023-04-10T02:55:00.034Z,98939.63
2023-04-10T02:57:32.197Z,98944.56
2023-04-10T02:59:59.178Z,98942.31
2023-04-10T03:02:28.433Z,98940.34
2023-04-10T03:04:58.976Z,98944.56
2023-04-10T03:07:28.165Z,98939.63
2023-04-10T03:09:55.118Z,98944.38
2023-04-10T03:12:22.216Z,98948.38
2023-04-10T03:14:49.210Z,98950.16
2023-04-10T03:17:16.189Z,98947.19
2023-04-10T03:19:43.259Z,98948.47
2023-04-10T03:22:11.087Z,98947.38
2023-04-10T03:24:41.066Z,98945.81
2023-04-10T03:27:08.118Z,98948.56
2023-04-10T03:29:35.155Z,98945.13
2023-04-10T03:32:02.432Z,98939.69
2023-04-10T03:34:30.434Z,98942.31
2023-04-10T03:36:57.448Z,98936.19
2023-04-10T03:39:24.688Z,98938.16
2023-04-10T03:41:51.700Z,98926.88
2023-04-10T03:44:19.762Z,98928.78
2023-04-10T03:46:46.760Z,98920.31
2023-04-10T03:49:13.741Z,98919.06
2023-04-10T03:51:41.140Z,98913.09
2023-04-10T03:54:08.103Z,98916.81
2023-04-10T03:56:35.361Z,98915.75
2023-04-10T03:59:02.393Z,98916.22
2023-04-10T04:01:32.710Z,98916.31
2023-04-10T04:04:05.107Z,98913.72
2023-04-10T04:06:50.448Z,98910.75
2023-04-10T04:09:20.667Z,98909.94
2023-04-10T04:12:08.127Z,98901.53
2023-04-10T04:14:53.719Z,98914.03
2023-04-10T04:17:23.330Z,98914.75
2023-04-10T04:19:57.844Z,98907.53
2023-04-10T04:22:44.808Z,98908.84
2023-04-10T04:25:34.672Z,98905.63
2023-04-10T04:28:04.353Z,98913.19
2023-04-10T04:30:35.712Z,98917.34
2023-04-10T04:33:25.582Z,98914.78
2023-04-10T04:35:58.235Z,98921.78
2023-04-10T04:38:55.492Z,98916.94
2023-04-10T04:41:30.731Z,98918.09
2023-04-10T04:44:10.298Z,98910.94
2023-04-10T04:46:51.101Z,98908.09
2023-04-10T04:49:40.981Z,98908.44
2023-04-10T04:52:28.036Z,98909.44
2023-04-10T04:55:17.668Z,98907.00
2023-04-10T04:58:05.404Z,98911.31
2023-04-10T05:00:44.527Z,98901.91
2023-04-10T05:03:32.595Z,98898.13
2023-04-10T05:06:22.913Z,98908.00
2023-04-10T05:09:09.497Z,98911.00
2023-04-10T05:12:06.006Z,98896.44
2023-04-10T05:14:52.038Z,98909.03
2023-04-10T05:17:37.362Z,98901.50
2023-04-10T05:20:14.449Z,98921.16
2023-04-10T05:22:56.152Z,98923.78
2023-04-10T05:25:46.169Z,98930.34
2023-04-10T05:28:19.593Z,98927.31
2023-04-10T05:31:07.168Z,98929.78
2023-04-10T05:33:50.691Z,98938.34
2023-04-10T05:36:39.232Z,98935.03
2023-04-10T05:39:20.577Z,98930.66
2023-04-10T05:41:59.068Z,98920.69
2023-04-10T05:44:31.498Z,98929.66
2023-04-10T05:47:18.690Z,98926.69
2023-04-10T05:49:57.599Z,98914.06
2023-04-10T05:52:42.898Z,98922.97
2023-04-10T05:55:33.088Z,98925.09
2023-04-10T05:58:14.918Z,98922.66
2023-04-10T06:00:59.315Z,98921.41
2023-04-10T06:03:48.091Z,98914.47
2023-04-10T06:06:17.256Z,98915.72
2023-04-10T06:08:44.868Z,98919.78
2023-04-10T06:11:11.964Z,98920.91
2023-04-10T06:13:41.344Z,98928.22
2023-04-10T06:16:09.122Z,98926.88
2023-04-10T06:18:37.706Z,98925.34
2023-04-10T06:21:05.056Z,98924.09
2023-04-10T06:23:32.291Z,98927.59
2023-04-10T06:26:00.352Z,98912.75
2023-04-10T06:28:27.552Z,98911.22
2023-04-10T06:30:58.268Z,98902.16
2023-04-10T06:33:31.215Z,98905.00
2023-04-10T06:35:59.115Z,98909.78
2023-04-10T06:38:26.282Z,98902.16
2023-04-10T06:40:53.517Z,98906.50
2023-04-10T06:43:20.467Z,98897.63
2023-04-10T06:45:48.804Z,98906.06
2023-04-10T06:48:15.789Z,98900.91
2023-04-10T06:50:42.919Z,98903.72
2023-04-10T06:53:09.948Z,98897.63
2023-04-10T06:55:37.624Z,98897.19
2023-04-10T06:58:04.780Z,98898.19
2023-04-10T07:00:32.310Z,98901.53
2023-04-10T07:02:59.293Z,98898.50
2023-04-10T07:05:26.352Z,98894.75
2023-04-10T07:07:53.423Z,98892.47
2023-04-10T07:10:20.815Z,98894.84
2023-04-10T07:12:47.936Z,98888.31
2023-04-10T07:15:14.911Z,98887.09
2023-04-10T07:17:42.499Z,98888.91
2023-04-10T07:20:10.493Z,98892.41
2023-04-10T07:22:37.628Z,98890.44
2023-04-10T07:25:05.040Z,98887.16
2023-04-10T07:27:32.261Z,98885.38
2023-04-10T07:29:59.182Z,98887.28
2023-04-10T07:32:26.945Z,98878.31
2023-04-10T07:34:54.230Z,98876.78
2023-04-10T07:37:21.305Z,98875.91
2023-04-10T07:39:48.281Z,98882.66
2023-04-10T07:42:15.390Z,98880.16
2023-04-10T07:44:42.307Z,98888.19
2023-04-10T07:47:09.658Z,98890.09
2023-04-10T07:49:36.791Z,98888.91
2023-04-10T07:52:03.868Z,98892.47
2023-04-10T07:54:34.432Z,98885.09
2023-04-10T07:57:01.456Z,98883.84
2023-04-10T07:59:28.786Z,98879.41
2023-04-10T08:01:56.158Z,98876.78
2023-04-10T08:04:23.567Z,98876.59
2023-04-10T08:06:50.861Z,98875.00
2023-04-10T08:09:17.931Z,98877.78
2023-04-10T08:11:44.918Z,98870.72
2023-04-10T08:14:13.449Z,98866.31
2023-04-10T08:16:45.336Z,98873.97
2023-04-10T08:19:12.502Z,98871.06
2023-04-10T08:21:39.450Z,98862.66
2023-04-10T08:24:06.568Z,98866.34
2023-04-10T08:26:33.525Z,98866.63
2023-04-10T08:29:00.963Z,98859.97
2023-04-10T08:31:29.329Z,98867.97
2023-04-10T08:33:57.163Z,98863.22
2023-04-10T08:36:24.655Z,98858.19
2023-04-10T08:38:51.588Z,98866.66
2023-04-10T08:41:20.092Z,98855.19
2023-04-10T08:43:47.433Z,98861.88
2023-04-10T08:46:15.139Z,98858.59
2023-04-10T08:49:03.966Z,98848.34
2023-04-10T08:51:42.822Z,98852.25
2023-04-10T08:54:23.342Z,98840.97
2023-04-10T08:56:53.995Z,98842.91
2023-04-10T08:59:21.231Z,98844.00
2023-04-10T09:01:49.089Z,98844.16
2023-04-10T09:04:20.434Z,98848.09
2023-04-10T09:06:47.701Z,98838.13
2023-04-10T09:09:14.686Z,98833.22
2023-04-10T09:11:56.459Z,98844.19
2023-04-10T09:14:25.679Z,98840.94
2023-04-10T09:16:55.097Z,98841.66
2023-04-10T09:19:33.686Z,98837.84
2023-04-10T09:22:01.071Z,98842.34
2023-04-10T09:24:28.449Z,98840.94
2023-04-10T09:26:56.249Z,98837.06
2023-04-10T09:29:23.230Z,98841.22
2023-04-10T09:31:51.357Z,98831.69
2023-04-10T09:34:23.698Z,98836.09
2023-04-10T09:36:59.870Z,98825.94
2023-04-10T09:39:36.086Z,98837.94
2023-04-10T09:42:03.108Z,98827.44
2023-04-10T09:44:37.381Z,98829.31
2023-04-10T09:47:22.976Z,98819.38
2023-04-10T09:49:56.792Z,98819.72
2023-04-10T09:52:29.115Z,98809.41
2023-04-10T09:55:08.638Z,98795.63
2023-04-10T09:57:36.422Z,98801.41
2023-04-10T10:00:08.154Z,98777.34
2023-04-10T10:02:41.716Z,98774.97
2023-04-10T10:05:10.113Z,98781.22
2023-04-10T10:07:38.735Z,98771.13
2023-04-10T10:10:09.231Z,98755.59
2023-04-10T10:12:44.879Z,98756.25
2023-04-10T10:15:21.091Z,98753.03
2023-04-10T10:18:02.942Z,98749.66
2023-04-10T10:20:32.900Z,98740.59
2023-04-10T10:23:03.581Z,98736.91
2023-04-10T10:25:31.823Z,98734.53
2023-04-10T10:28:03.604Z,98732.00
2023-04-10T10:30:33.865Z,98729.66
2023-04-10T10:33:07.600Z,98730.97
2023-04-10T10:35:38.057Z,98720.59
2023-04-10T10:38:06.283Z,98726.91
2023-04-10T10:40:39.757Z,98719.03
2023-04-10T10:43:25.181Z,98711.66
2023-04-10T10:46:03.643Z,98715.13
2023-04-10T10:48:31.066Z,98706.16
2023-04-10T10:51:00.453Z,98701.28
2023-04-10T10:53:37.939Z,98694.84
2023-04-10T10:56:20.819Z,98689.53
2023-04-10T10:58:57.553Z,98692.56
2023-04-10T11:01:25.164Z,98693.06
2023-04-10T11:03:52.717Z,98682.81
2023-04-10T11:06:21.595Z,98674.69
2023-04-10T11:08:52.954Z,98664.25
2023-04-10T11:11:25.205Z,98677.34
2023-04-10T11:13:52.562Z,98670.69
2023-04-10T11:16:21.408Z,98663.63
2023-04-10T11:19:02.702Z,98666.25
2023-04-10T11:21:45.602Z,98666.53
2023-04-10T11:24:13.113Z,98670.75
2023-04-10T11:26:41.597Z,98670.41
2023-04-10T11:29:17.646Z,98665.56
2023-04-10T11:31:46.149Z,98669.31
2023-04-10T11:34:15.681Z,98664.41
2023-04-10T11:36:44.631Z,98668.81
2023-04-10T11:39:13.266Z,98655.38
2023-04-10T11:41:43.464Z,98655.03
2023-04-10T11:44:16.482Z,98658.41
2023-04-10T11:46:47.449Z,98647.38
2023-04-10T11:49:22.001Z,98640.13
2023-04-10T11:51:51.070Z,98645.78
2023-04-10T11:54:25.916Z,98655.38
2023-04-10T11:57:09.118Z,98649.88
2023-04-10T11:59:36.814Z,98632.53
2023-04-10T12:02:17.604Z,98635.84
2023-04-10T12:04:45.559Z,98644.75
2023-04-10T12:07:13.083Z,98638.22
2023-04-10T12:09:40.900Z,98630.69
2023-04-10T12:12:08.950Z,98620.47
2023-04-10T12:14:42.665Z,98615.28
2023-04-10T12:17:12.885Z,98606.94
2023-04-10T12:19:40.733Z,98603.41
2023-04-10T12:22:08.108Z,98601.06
2023-04-10T12:24:51.213Z,98592.31
2023-04-10T12:27:26.966Z,98586.00
2023-04-10T12:29:56.394Z,98585.25
2023-04-10T12:32:24.773Z,98586.38
2023-04-10T12:35:01.389Z,98585.28
2023-04-10T12:38:07.382Z,98584.47
2023-04-10T12:40:34.763Z,98582.16
2023-04-10T12:43:02.099Z,98565.63
2023-04-10T12:45:49.744Z,98557.00
2023-04-10T12:48:24.535Z,98553.69
2023-04-10T12:50:52.428Z,98560.06
2023-04-10T12:53:19.805Z,98555.88
2023-04-10T12:56:03.162Z,98551.00
2023-04-10T12:58:31.728Z,98546.34
2023-04-10T13:01:03.911Z,98549.00
2023-04-10T13:03:33.832Z,98544.34
2023-04-10T13:06:01.351Z,98551.69
2023-04-10T13:08:32.157Z,98543.34
2023-04-10T13:11:05.738Z,98532.22
2023-04-10T13:13:33.400Z,98529.88
2023-04-10T13:16:00.838Z,98537.03
2023-04-10T13:18:28.317Z,98531.50
2023-04-10T13:20:55.741Z,98529.78
2023-04-10T13:23:23.154Z,98535.25
2023-04-10T13:25:51.107Z,98531.47
2023-04-10T13:28:18.961Z,98529.00
2023-04-10T13:30:46.379Z,98521.53
2023-04-10T13:33:13.889Z,98519.81
2023-04-10T13:35:41.311Z,98510.16
2023-04-10T13:38:09.562Z,98509.75
2023-04-10T13:40:37.140Z,98510.78
2023-04-10T13:43:06.323Z,98501.25
2023-04-10T13:45:34.889Z,98506.09
2023-04-10T13:48:02.330Z,98503.72
2023-04-10T13:50:29.686Z,98516.31
2023-04-10T13:52:57.059Z,98500.69
2023-04-10T13:55:24.454Z,98505.13
2023-04-10T13:57:52.112Z,98495.41
2023-04-10T14:00:19.616Z,98492.72
2023-04-10T14:02:47.132Z,98495.63
2023-04-10T14:05:14.533Z,98494.81
2023-04-10T14:07:41.946Z,98493.28
2023-04-10T14:10:09.918Z,98488.84
2023-04-10T14:12:38.019Z,98479.38
2023-04-10T14:15:05.964Z,98475.06
2023-04-10T14:17:33.985Z,98473.91
2023-04-10T14:20:01.822Z,98476.00
2023-04-10T14:22:30.336Z,98474.13
2023-04-10T14:25:09.435Z,98475.56
2023-04-10T14:27:42.080Z,98466.38
2023-04-10T14:30:10.765Z,98459.41
2023-04-10T14:32:39.632Z,98458.09
2023-04-10T14:35:07.504Z,98450.88
2023-04-10T14:37:34.859Z,98447.06
2023-04-10T14:40:02.386Z,98451.84
2023-04-10T14:42:30.068Z,98446.56
2023-04-10T14:45:00.541Z,98444.19
2023-04-10T14:47:28.065Z,98438.91
2023-04-10T14:49:55.494Z,98428.38
2023-04-10T14:52:22.996Z,98434.50
2023-04-10T14:54:50.367Z,98429.69
2023-04-10T14:57:17.746Z,98434.22
2023-04-10T14:59:45.403Z,98426.63
2023-04-10T15:02:12.745Z,98422.53
2023-04-10T15:04:40.329Z,98421.00
2023-04-10T15:07:07.780Z,98418.00
2023-04-10T15:09:35.196Z,98413.53
2023-04-10T15:12:02.565Z,98407.50
2023-04-10T15:14:29.903Z,98405.31
2023-04-10T15:16:57.365Z,98397.97
2023-04-10T15:19:24.869Z,98395.97
2023-04-10T15:21:52.168Z,98398.94
2023-04-10T15:24:19.528Z,98387.72
2023-04-10T15:26:47.178Z,98380.78
2023-04-10T15:29:14.829Z,98387.34
2023-04-10T15:31:42.324Z,98382.59
2023-04-10T15:34:10.308Z,98374.09
2023-04-10T15:36:37.660Z,98373.53
2023-04-10T15:39:05.195Z,98369.72
2023-04-10T15:41:33.147Z,98363.94
2023-04-10T15:44:00.560Z,98364.97
2023-04-10T15:46:29.116Z,98355.59
2023-04-10T15:48:56.429Z,98362.28
2023-04-10T15:51:23.820Z,98359.69
2023-04-10T15:53:51.155Z,98336.84
2023-04-10T15:56:18.518Z,98340.50
2023-04-10T15:58:45.848Z,98340.88
2023-04-10T16:01:13.317Z,98340.38
2023-04-10T16:03:41.006Z,98335.84
2023-04-10T16:06:08.830Z,98329.63
2023-04-10T16:08:36.274Z,98331.34
2023-04-10T16:11:03.760Z,98331.63
2023-04-10T16:13:31.154Z,98323.63
2023-04-10T16:15:58.675Z,98327.56
2023-04-10T16:18:26.170Z,98325.91
2023-04-10T16:20:53.579Z,98318.22
2023-04-10T16:23:21.011Z,98308.03
2023-04-10T16:25:48.339Z,98312.03
2023-04-10T16:28:15.758Z,98308.03
2023-04-10T16:30:43.077Z,98317.50
2023-04-10T16:33:10.567Z,98316.31
2023-04-10T16:35:38.103Z,98311.13
2023-04-10T16:38:05.566Z,98313.31
2023-04-10T16:40:33.161Z,98300.59
2023-04-10T16:43:01.851Z,98302.78
2023-04-10T16:45:29.415Z,98294.56
2023-04-10T16:47:56.834Z,98285.59
2023-04-10T16:50:24.227Z,98288.38
2023-04-10T16:52:51.612Z,98263.53
2023-04-10T16:55:19.023Z,98251.47
2023-04-10T16:57:46.740Z,98257.97
2023-04-10T17:00:14.450Z,98241.47
2023-04-10T17:02:42.973Z,98233.47
2023-04-10T17:05:12.216Z,98241.41
2023-04-10T17:07:39.556Z,98240.38
2023-04-10T17:10:07.409Z,98243.00
2023-04-10T17:12:34.883Z,98252.94
2023-04-10T17:15:02.421Z,98246.38
2023-04-10T17:17:29.894Z,98250.97
2023-04-10T17:19:58.495Z,98247.50
2023-04-10T17:22:26.191Z,98243.56
2023-04-10T17:24:53.593Z,98245.72
2023-04-10T17:27:21.004Z,98242.97
2023-04-10T17:29:48.405Z,98248.69
2023-04-10T17:32:15.797Z,98245.34
2023-04-10T17:34:43.135Z,98238.50
2023-04-10T17:37:10.510Z,98235.22
2023-04-10T17:39:37.917Z,98233.16
2023-04-10T17:42:05.278Z,98238.78
2023-04-10T17:44:33.027Z,98235.91
2023-04-10T17:47:01.379Z,98234.41
2023-04-10T17:49:28.779Z,98222.06
2023-04-10T17:51:56.165Z,98226.25
2023-04-10T17:54:23.499Z,98226.63
2023-04-10T17:56:53.000Z,98216.75
2023-04-10T17:59:20.358Z,98216.59
2023-04-10T18:01:47.976Z,98210.44
2023-04-10T18:04:15.429Z,98205.66
2023-04-10T18:06:42.876Z,98199.66
2023-04-10T18:09:11.490Z,98205.53
2023-04-10T18:11:40.382Z,98206.03
2023-04-10T18:14:07.840Z,98209.09
2023-04-10T18:16:35.273Z,98195.91
2023-04-10T18:19:02.725Z,98188.81
2023-04-10T18:21:31.491Z,98184.69
2023-04-10T18:23:58.802Z,98176.56
2023-04-10T18:26:28.572Z,98170.75
2023-04-10T18:28:56.204Z,98164.94
2023-04-10T18:31:24.120Z,98159.03
2023-04-10T18:34:03.826Z,98162.75
2023-04-10T18:36:34.293Z,98170.28
2023-04-10T18:39:01.700Z,98165.13
2023-04-10T18:41:29.143Z,98173.75
2023-04-10T18:44:04.884Z,98183.94
2023-04-10T18:46:33.258Z,98194.22
2023-04-10T18:49:01.623Z,98194.41
2023-04-10T18:51:29.196Z,98191.03
2023-04-10T18:53:56.735Z,98196.88
2023-04-10T18:56:24.278Z,98200.44
2023-04-10T18:58:51.684Z,98217.63
2023-04-10T19:01:19.030Z,98213.97
2023-04-10T19:03:49.140Z,98220.97
2023-04-10T19:06:18.398Z,98211.69
2023-04-10T19:08:45.803Z,98209.94
2023-04-10T19:11:13.126Z,98213.66
2023-04-10T19:13:40.795Z,98204.16
2023-04-10T19:16:09.073Z,98209.56
2023-04-10T19:18:36.406Z,98214.94
2023-04-10T19:21:04.210Z,98219.44
2023-04-10T19:23:31.596Z,98220.31
2023-04-10T19:26:00.305Z,98219.31
2023-04-10T19:28:28.619Z,98209.28
2023-04-10T19:30:56.083Z,98200.88
2023-04-10T19:33:24.148Z,98199.88
2023-04-10T19:35:51.740Z,98201.13
2023-04-10T19:38:19.293Z,98194.84
2023-04-10T19:40:47.266Z,98208.69
2023-04-10T19:43:14.656Z,98225.94
2023-04-10T19:45:42.054Z,98235.88
2023-04-10T19:48:09.895Z,98234.47
2023-04-10T19:50:37.288Z,98234.56
2023-04-10T19:53:04.971Z,98233.03
2023-04-10T19:55:32.414Z,98232.59
2023-04-10T19:57:59.890Z,98221.00
2023-04-10T20:00:27.228Z,98225.63
2023-04-10T20:02:54.993Z,98212.63
2023-04-10T20:05:22.532Z,98200.81
2023-04-10T20:07:50.417Z,98211.31
2023-04-10T20:10:17.798Z,98225.72
2023-04-10T20:12:45.269Z,98228.06
2023-04-10T20:15:12.782Z,98229.03
2023-04-10T20:17:40.260Z,98217.56
2023-04-10T20:20:08.154Z,98206.38
2023-04-10T20:22:35.678Z,98211.84
2023-04-10T20:25:03.012Z,98205.03
2023-04-10T20:27:30.380Z,98196.63
2023-04-10T20:29:57.677Z,98193.03
2023-04-10T20:32:25.148Z,98189.16
2023-04-10T20:34:52.691Z,98191.81
2023-04-10T20:37:21.995Z,98184.69
2023-04-10T20:39:49.662Z,98179.06
2023-04-10T20:42:17.185Z,98179.50
2023-04-10T20:44:44.613Z,98177.97
2023-04-10T20:47:12.114Z,98172.56
2023-04-10T20:49:39.605Z,98182.28
2023-04-10T20:52:07.477Z,98172.47
2023-04-10T20:54:34.870Z,98176.03
2023-04-10T20:57:02.271Z,98171.56
2023-04-10T20:59:30.072Z,98163.97
2023-04-10T21:02:00.281Z,98160.88
2023-04-10T21:04:27.637Z,98155.81
2023-04-10T21:06:55.014Z,98147.53
2023-04-10T21:09:22.434Z,98145.63
2023-04-10T21:11:49.843Z,98148.66
2023-04-10T21:14:17.195Z,98144.28
2023-04-10T21:16:45.877Z,98140.56
2023-04-10T21:19:13.430Z,98138.41
2023-04-10T21:21:40.860Z,98132.66
2023-04-10T21:24:08.334Z,98130.00
2023-04-10T21:26:35.728Z,98130.28
2023-04-10T21:29:03.072Z,98124.47
2023-04-10T21:31:30.602Z,98126.66
2023-04-10T21:33:58.011Z,98132.28
2023-04-10T21:36:26.450Z,98125.75
2023-04-10T21:38:54.058Z,98123.84
2023-04-10T21:41:21.676Z,98128.78
2023-04-10T21:43:49.030Z,98148.84
2023-04-10T21:46:16.356Z,98156.81
2023-04-10T21:48:43.849Z,98149.75
2023-04-10T21:51:11.181Z,98143.22
2023-04-10T21:53:38.696Z,98151.94
2023-04-10T21:56:06.540Z,98146.56
2023-04-10T21:58:33.928Z,98139.72
2023-04-10T22:01:01.622Z,98141.19
2023-04-10T22:03:29.216Z,98137.38
2023-04-10T22:05:56.568Z,98120.59
2023-04-10T22:08:23.949Z,98123.00
2023-04-10T22:10:52.281Z,98117.91
2023-04-10T22:13:30.446Z,98103.09
2023-04-10T22:15:59.805Z,98113.59
2023-04-10T22:18:27.262Z,98099.75
2023-04-10T22:20:54.580Z,98096.69
2023-04-10T22:23:22.006Z,98082.44
2023-04-10T22:25:49.353Z,98073.81
2023-04-10T22:28:16.741Z,98076.69
2023-04-10T22:30:44.124Z,98056.41
2023-04-10T22:33:12.164Z,98050.72
2023-04-10T22:35:39.514Z,98052.69
2023-04-10T22:38:07.691Z,98049.13
2023-04-10T22:40:35.295Z,98035.22
2023-04-10T22:43:02.672Z,98046.78
2023-04-10T22:45:30.130Z,98035.47
2023-04-10T22:47:57.568Z,98030.88
2023-04-10T22:50:24.869Z,97993.72
2023-04-10T22:52:52.181Z,97987.94
2023-04-10T22:55:19.638Z,97997.03
2023-04-10T22:57:50.223Z,97990.03
2023-04-10T23:00:17.847Z,97992.91
2023-04-10T23:02:45.387Z,97988.13
2023-04-10T23:05:12.777Z,97985.38
2023-04-10T23:07:40.395Z,97971.25
2023-04-10T23:10:08.476Z,97957.28
2023-04-10T23:12:35.853Z,97952.75
2023-04-10T23:15:03.639Z,97959.44
2023-04-10T23:17:31.077Z,97982.50
2023-04-10T23:19:58.516Z,98003.13
2023-04-10T23:22:25.915Z,98005.50
2023-04-10T23:24:54.744Z,97999.69
2023-04-10T23:27:22.308Z,98011.00
2023-04-10T23:29:50.104Z,97994.84
2023-04-10T23:32:17.562Z,97999.00
2023-04-10T23:34:44.900Z,97991.34
2023-04-10T23:37:12.333Z,97995.50
2023-04-10T23:39:39.718Z,97989.50
2023-04-10T23:42:07.119Z,97990.97
2023-04-10T23:44:34.453Z,97988.81
2023-04-10T23:47:01.945Z,97983.13
2023-04-10T23:49:29.428Z,97977.81
2023-04-10T23:51:56.836Z,97982.13
2023-04-10T23:54:24.183Z,97969.84
2023-04-10T23:56:51.552Z,97965.44
2023-04-10T23:59:19.492Z,97959.44
